sensor_id;sensor_type;location;lat;lon;timestamp;pressure;altitude;pressure_sealevel;temperature;humidity
59545;BME280;45368;55.002;-1.592;2023-01-28T00:02:04;102208.22;;;3.87;57.80
59545;BME280;45368;55.002;-1.592;2023-01-28T00:04:31;102204.94;;;3.44;58.23
59545;BME280;45368;55.002;-1.592;2023-01-28T00:06:58;102193.24;;;3.88;56.88
59545;BME280;45368;55.002;-1.592;2023-01-28T00:09:25;102185.49;;;3.52;57.51
59545;BME280;45368;55.002;-1.592;2023-01-28T00:11:52;102187.62;;;3.87;57.28
59545;BME280;45368;55.002;-1.592;2023-01-28T00:14:19;102191.63;;;2.78;59.27
59545;BME280;45368;55.002;-1.592;2023-01-28T00:16:46;102188.48;;;3.61;57.66
59545;BME280;45368;55.002;-1.592;2023-01-28T00:19:13;102196.91;;;2.47;60.61
59545;BME280;45368;55.002;-1.592;2023-01-28T00:21:40;102204.03;;;2.37;61.39
59545;BME280;45368;55.002;-1.592;2023-01-28T00:24:07;102202.94;;;2.17;62.19
59545;BME280;45368;55.002;-1.592;2023-01-28T00:26:35;102206.57;;;2.38;61.70
59545;BME280;45368;55.002;-1.592;2023-01-28T00:29:03;102203.93;;;3.05;59.95
59545;BME280;45368;55.002;-1.592;2023-01-28T00:31:30;102210.35;;;2.97;59.81
59545;BME280;45368;55.002;-1.592;2023-01-28T00:33:57;102210.48;;;2.48;60.63
59545;BME280;45368;55.002;-1.592;2023-01-28T00:36:25;102203.46;;;2.92;60.15
59545;BME280;45368;55.002;-1.592;2023-01-28T00:39:01;102195.14;;;2.37;60.76
59545;BME280;45368;55.002;-1.592;2023-01-28T00:41:29;102182.15;;;2.95;59.84
59545;BME280;45368;55.002;-1.592;2023-01-28T00:43:56;102184.33;;;3.04;59.85
59545;BME280;45368;55.002;-1.592;2023-01-28T00:46:24;102182.88;;;3.54;58.36
59545;BME280;45368;55.002;-1.592;2023-01-28T00:48:55;102186.60;;;2.91;58.98
59545;BME280;45368;55.002;-1.592;2023-01-28T00:51:23;102181.68;;;2.96;59.77
59545;BME280;45368;55.002;-1.592;2023-01-28T00:53:50;102178.22;;;2.67;60.14
59545;BME280;45368;55.002;-1.592;2023-01-28T00:56:17;102168.44;;;2.89;59.09
59545;BME280;45368;55.002;-1.592;2023-01-28T00:58:45;102162.97;;;2.99;59.89
59545;BME280;45368;55.002;-1.592;2023-01-28T01:01:20;102163.91;;;2.88;58.93
59545;BME280;45368;55.002;-1.592;2023-01-28T01:03:48;102167.58;;;2.97;59.63
59545;BME280;45368;55.002;-1.592;2023-01-28T01:06:22;102163.89;;;2.91;59.97
59545;BME280;45368;55.002;-1.592;2023-01-28T01:08:50;102166.49;;;3.64;57.96
59545;BME280;45368;55.002;-1.592;2023-01-28T01:11:17;102158.65;;;3.31;59.66
59545;BME280;45368;55.002;-1.592;2023-01-28T01:13:51;102151.78;;;3.54;58.40
59545;BME280;45368;55.002;-1.592;2023-01-28T01:16:18;102144.40;;;2.65;59.77
59545;BME280;45368;55.002;-1.592;2023-01-28T01:18:45;102129.69;;;3.43;58.11
59545;BME280;45368;55.002;-1.592;2023-01-28T01:21:15;102127.86;;;3.24;58.14
59545;BME280;45368;55.002;-1.592;2023-01-28T01:23:43;102130.79;;;3.27;58.55
59545;BME280;45368;55.002;-1.592;2023-01-28T01:26:11;102132.85;;;3.75;58.04
59545;BME280;45368;55.002;-1.592;2023-01-28T01:28:38;102129.60;;;3.94;57.06
59545;BME280;45368;55.002;-1.592;2023-01-28T01:31:09;102129.57;;;3.82;57.20
59545;BME280;45368;55.002;-1.592;2023-01-28T01:33:38;102126.77;;;3.44;58.15
59545;BME280;45368;55.002;-1.592;2023-01-28T01:36:06;102124.88;;;3.54;58.23
59545;BME280;45368;55.002;-1.592;2023-01-28T01:38:33;102121.13;;;3.79;57.57
59545;BME280;45368;55.002;-1.592;2023-01-28T01:41:21;102125.16;;;4.46;55.59
59545;BME280;45368;55.002;-1.592;2023-01-28T01:43:50;102122.52;;;4.01;56.24
59545;BME280;45368;55.002;-1.592;2023-01-28T01:46:21;102125.85;;;4.91;55.36
59545;BME280;45368;55.002;-1.592;2023-01-28T01:48:50;102129.47;;;3.74;57.01
59545;BME280;45368;55.002;-1.592;2023-01-28T01:51:22;102135.16;;;4.01;57.87
59545;BME280;45368;55.002;-1.592;2023-01-28T01:53:53;102141.92;;;4.11;57.36
59545;BME280;45368;55.002;-1.592;2023-01-28T01:56:25;102135.11;;;4.60;56.09
59545;BME280;45368;55.002;-1.592;2023-01-28T01:58:55;102146.19;;;3.05;59.11
59545;BME280;45368;55.002;-1.592;2023-01-28T02:01:25;102137.94;;;3.80;58.71
59545;BME280;45368;55.002;-1.592;2023-01-28T02:04:00;102143.44;;;3.39;59.30
59545;BME280;45368;55.002;-1.592;2023-01-28T02:06:30;102133.19;;;3.88;57.82
59545;BME280;45368;55.002;-1.592;2023-01-28T02:08:58;102128.96;;;3.34;59.11
59545;BME280;45368;55.002;-1.592;2023-01-28T02:11:29;102129.20;;;3.04;60.32
59545;BME280;45368;55.002;-1.592;2023-01-28T02:14:00;102140.36;;;3.36;59.14
59545;BME280;45368;55.002;-1.592;2023-01-28T02:16:29;102144.78;;;3.07;60.73
59545;BME280;45368;55.002;-1.592;2023-01-28T02:18:57;102140.24;;;2.68;62.51
59545;BME280;45368;55.002;-1.592;2023-01-28T02:21:42;102143.76;;;2.03;63.95
59545;BME280;45368;55.002;-1.592;2023-01-28T02:24:29;102133.00;;;2.86;62.63
59545;BME280;45368;55.002;-1.592;2023-01-28T02:27:14;102139.22;;;2.69;62.61
59545;BME280;45368;55.002;-1.592;2023-01-28T02:29:49;102144.03;;;2.46;63.95
59545;BME280;45368;55.002;-1.592;2023-01-28T02:32:34;102147.06;;;1.96;66.13
59545;BME280;45368;55.002;-1.592;2023-01-28T02:35:08;102142.17;;;2.41;64.08
59545;BME280;45368;55.002;-1.592;2023-01-28T02:37:42;102136.38;;;1.69;66.39
59545;BME280;45368;55.002;-1.592;2023-01-28T02:40:15;102144.16;;;2.29;65.60
59545;BME280;45368;55.002;-1.592;2023-01-28T02:42:46;102147.26;;;2.01;66.62
59545;BME280;45368;55.002;-1.592;2023-01-28T02:45:20;102153.61;;;2.45;65.54
59545;BME280;45368;55.002;-1.592;2023-01-28T02:47:49;102157.38;;;2.32;66.31
59545;BME280;45368;55.002;-1.592;2023-01-28T02:50:18;102159.51;;;2.68;64.30
59545;BME280;45368;55.002;-1.592;2023-01-28T02:53:03;102155.17;;;2.42;64.88
59545;BME280;45368;55.002;-1.592;2023-01-28T02:55:38;102149.66;;;2.97;63.74
59545;BME280;45368;55.002;-1.592;2023-01-28T02:58:10;102159.82;;;2.93;63.89
59545;BME280;45368;55.002;-1.592;2023-01-28T03:00:47;102173.60;;;2.47;65.99
59545;BME280;45368;55.002;-1.592;2023-01-28T03:03:34;102171.12;;;2.19;66.70
59545;BME280;45368;55.002;-1.592;2023-01-28T03:06:13;102165.56;;;1.83;67.08
59545;BME280;45368;55.002;-1.592;2023-01-28T03:08:57;102166.58;;;2.83;65.41
59545;BME280;45368;55.002;-1.592;2023-01-28T03:11:47;102164.47;;;2.59;64.69
59545;BME280;45368;55.002;-1.592;2023-01-28T03:14:27;102171.46;;;2.98;64.46
59545;BME280;45368;55.002;-1.592;2023-01-28T03:16:59;102180.97;;;2.71;64.58
59545;BME280;45368;55.002;-1.592;2023-01-28T03:19:26;102182.52;;;1.99;67.31
59545;BME280;45368;55.002;-1.592;2023-01-28T03:21:54;102179.28;;;2.36;67.11
59545;BME280;45368;55.002;-1.592;2023-01-28T03:24:26;102178.00;;;1.59;67.97
59545;BME280;45368;55.002;-1.592;2023-01-28T03:27:00;102172.82;;;2.20;67.23
59545;BME280;45368;55.002;-1.592;2023-01-28T03:29:43;102176.35;;;2.46;65.57
59545;BME280;45368;55.002;-1.592;2023-01-28T03:32:12;102179.50;;;2.51;66.32
59545;BME280;45368;55.002;-1.592;2023-01-28T03:34:40;102183.95;;;2.28;66.79
59545;BME280;45368;55.002;-1.592;2023-01-28T03:37:08;102187.47;;;1.75;68.72
59545;BME280;45368;55.002;-1.592;2023-01-28T03:39:36;102186.27;;;2.34;67.60
59545;BME280;45368;55.002;-1.592;2023-01-28T03:42:05;102182.43;;;2.84;66.11
59545;BME280;45368;55.002;-1.592;2023-01-28T03:44:33;102179.97;;;2.38;66.76
59545;BME280;45368;55.002;-1.592;2023-01-28T03:47:01;102180.32;;;2.77;65.79
59545;BME280;45368;55.002;-1.592;2023-01-28T03:49:28;102190.42;;;2.62;65.61
59545;BME280;45368;55.002;-1.592;2023-01-28T03:51:55;102188.51;;;2.46;67.57
59545;BME280;45368;55.002;-1.592;2023-01-28T03:54:22;102178.59;;;2.74;65.45
59545;BME280;45368;55.002;-1.592;2023-01-28T03:56:49;102184.40;;;2.50;66.17
59545;BME280;45368;55.002;-1.592;2023-01-28T03:59:16;102183.25;;;2.68;66.67
59545;BME280;45368;55.002;-1.592;2023-01-28T04:01:43;102191.95;;;2.87;66.47
59545;BME280;45368;55.002;-1.592;2023-01-28T04:04:11;102191.95;;;2.25;67.09
59545;BME280;45368;55.002;-1.592;2023-01-28T04:06:38;102194.96;;;2.52;67.95
59545;BME280;45368;55.002;-1.592;2023-01-28T04:09:05;102192.53;;;3.48;64.78
59545;BME280;45368;55.002;-1.592;2023-01-28T04:11:38;102183.78;;;3.73;63.99
59545;BME280;45368;55.002;-1.592;2023-01-28T04:14:05;102191.15;;;3.00;66.27
59545;BME280;45368;55.002;-1.592;2023-01-28T04:16:33;102186.70;;;3.15;67.07
59545;BME280;45368;55.002;-1.592;2023-01-28T04:19:00;102192.00;;;3.27;66.28
59545;BME280;45368;55.002;-1.592;2023-01-28T04:21:27;102185.42;;;3.69;65.19
59545;BME280;45368;55.002;-1.592;2023-01-28T04:23:54;102187.55;;;3.35;67.77
59545;BME280;45368;55.002;-1.592;2023-01-28T04:26:21;102177.91;;;3.35;66.92
59545;BME280;45368;55.002;-1.592;2023-01-28T04:28:49;102176.99;;;3.54;66.30
59545;BME280;45368;55.002;-1.592;2023-01-28T04:31:16;102180.17;;;3.49;66.61
59545;BME280;45368;55.002;-1.592;2023-01-28T04:33:44;102167.55;;;3.76;64.85
59545;BME280;45368;55.002;-1.592;2023-01-28T04:36:11;102181.33;;;3.02;67.62
59545;BME280;45368;55.002;-1.592;2023-01-28T04:38:38;102187.41;;;3.31;67.31
59545;BME280;45368;55.002;-1.592;2023-01-28T04:41:17;102187.18;;;3.53;67.21
59545;BME280;45368;55.002;-1.592;2023-01-28T04:43:44;102189.22;;;3.15;68.25
59545;BME280;45368;55.002;-1.592;2023-01-28T04:46:17;102192.83;;;3.13;68.23
59545;BME280;45368;55.002;-1.592;2023-01-28T04:48:44;102192.39;;;4.39;64.38
59545;BME280;45368;55.002;-1.592;2023-01-28T04:51:11;102192.71;;;4.44;63.86
59545;BME280;45368;55.002;-1.592;2023-01-28T04:53:38;102193.84;;;3.56;65.33
59545;BME280;45368;55.002;-1.592;2023-01-28T04:56:06;102196.38;;;3.83;65.43
59545;BME280;45368;55.002;-1.592;2023-01-28T04:58:33;102198.04;;;3.71;65.41
59545;BME280;45368;55.002;-1.592;2023-01-28T05:01:00;102190.81;;;4.18;64.11
59545;BME280;45368;55.002;-1.592;2023-01-28T05:03:27;102193.88;;;4.53;63.66
59545;BME280;45368;55.002;-1.592;2023-01-28T05:05:54;102197.82;;;4.24;63.70
59545;BME280;45368;55.002;-1.592;2023-01-28T05:08:21;102204.07;;;4.08;63.66
59545;BME280;45368;55.002;-1.592;2023-01-28T05:10:49;102199.35;;;4.47;63.64
59545;BME280;45368;55.002;-1.592;2023-01-28T05:13:19;102207.40;;;4.17;64.39
59545;BME280;45368;55.002;-1.592;2023-01-28T05:15:50;102213.71;;;4.24;64.30
59545;BME280;45368;55.002;-1.592;2023-01-28T05:18:18;102224.23;;;3.56;67.53
59545;BME280;45368;55.002;-1.592;2023-01-28T05:20:51;102231.47;;;2.78;69.62
59545;BME280;45368;55.002;-1.592;2023-01-28T05:23:18;102235.63;;;2.47;72.01
59545;BME280;45368;55.002;-1.592;2023-01-28T05:25:44;102232.72;;;3.05;70.10
59545;BME280;45368;55.002;-1.592;2023-01-28T05:28:12;102227.61;;;3.32;67.68
59545;BME280;45368;55.002;-1.592;2023-01-28T05:30:39;102233.96;;;3.58;68.64
59545;BME280;45368;55.002;-1.592;2023-01-28T05:33:06;102228.18;;;3.38;67.87
59545;BME280;45368;55.002;-1.592;2023-01-28T05:35:34;102230.43;;;3.61;68.79
59545;BME280;45368;55.002;-1.592;2023-01-28T05:38:02;102236.77;;;3.28;69.77
59545;BME280;45368;55.002;-1.592;2023-01-28T05:40:30;102247.95;;;3.06;69.93
59545;BME280;45368;55.002;-1.592;2023-01-28T05:42:57;102243.20;;;3.07;70.78
59545;BME280;45368;55.002;-1.592;2023-01-28T05:45:25;102240.28;;;3.61;68.78
59545;BME280;45368;55.002;-1.592;2023-01-28T05:47:51;102238.15;;;2.74;70.51
59545;BME280;45368;55.002;-1.592;2023-01-28T05:50:18;102237.61;;;3.78;68.08
59545;BME280;45368;55.002;-1.592;2023-01-28T05:52:45;102238.53;;;4.14;66.30
59545;BME280;45368;55.002;-1.592;2023-01-28T05:55:13;102243.57;;;3.07;69.34
59545;BME280;45368;55.002;-1.592;2023-01-28T05:57:47;102240.59;;;4.33;67.35
59545;BME280;45368;55.002;-1.592;2023-01-28T06:00:15;102245.10;;;3.80;70.29
59545;BME280;45368;55.002;-1.592;2023-01-28T06:02:42;102250.53;;;3.93;69.90
59545;BME280;45368;55.002;-1.592;2023-01-28T06:05:09;102255.00;;;3.34;71.18
59545;BME280;45368;55.002;-1.592;2023-01-28T06:07:44;102258.99;;;3.50;72.70
59545;BME280;45368;55.002;-1.592;2023-01-28T06:10:11;102261.49;;;3.09;72.96
59545;BME280;45368;55.002;-1.592;2023-01-28T06:12:38;102265.44;;;2.46;76.90
59545;BME280;45368;55.002;-1.592;2023-01-28T06:15:07;102270.07;;;2.49;77.06
59545;BME280;45368;55.002;-1.592;2023-01-28T06:17:34;102259.31;;;2.77;76.67
59545;BME280;45368;55.002;-1.592;2023-01-28T06:20:02;102250.41;;;3.12;75.64
59545;BME280;45368;55.002;-1.592;2023-01-28T06:22:30;102247.57;;;3.20;75.50
59545;BME280;45368;55.002;-1.592;2023-01-28T06:24:57;102253.96;;;3.34;74.56
59545;BME280;45368;55.002;-1.592;2023-01-28T06:27:24;102256.12;;;3.21;73.68
59545;BME280;45368;55.002;-1.592;2023-01-28T06:29:51;102261.76;;;3.15;74.45
59545;BME280;45368;55.002;-1.592;2023-01-28T06:32:19;102256.98;;;3.10;75.12
59545;BME280;45368;55.002;-1.592;2023-01-28T06:34:46;102258.88;;;3.24;75.60
59545;BME280;45368;55.002;-1.592;2023-01-28T06:37:13;102266.16;;;3.21;75.43
59545;BME280;45368;55.002;-1.592;2023-01-28T06:39:41;102266.97;;;3.24;75.74
59545;BME280;45368;55.002;-1.592;2023-01-28T06:42:08;102265.39;;;3.14;75.59
59545;BME280;45368;55.002;-1.592;2023-01-28T06:44:36;102260.76;;;3.52;74.05
59545;BME280;45368;55.002;-1.592;2023-01-28T06:47:03;102263.14;;;4.28;72.13
59545;BME280;45368;55.002;-1.592;2023-01-28T06:49:30;102267.03;;;4.06;72.58
59545;BME280;45368;55.002;-1.592;2023-01-28T06:51:57;102268.66;;;4.13;71.88
59545;BME280;45368;55.002;-1.592;2023-01-28T06:54:24;102263.72;;;4.15;71.82
59545;BME280;45368;55.002;-1.592;2023-01-28T06:56:52;102261.60;;;4.30;71.16
59545;BME280;45368;55.002;-1.592;2023-01-28T06:59:40;102261.53;;;3.96;71.00
59545;BME280;45368;55.002;-1.592;2023-01-28T07:02:09;102260.46;;;3.48;72.74
59545;BME280;45368;55.002;-1.592;2023-01-28T07:04:37;102247.95;;;4.19;71.51
59545;BME280;45368;55.002;-1.592;2023-01-28T07:07:14;102246.74;;;4.17;70.55
59545;BME280;45368;55.002;-1.592;2023-01-28T07:09:41;102249.01;;;3.71;72.53
59545;BME280;45368;55.002;-1.592;2023-01-28T07:12:09;102252.65;;;3.91;72.11
59545;BME280;45368;55.002;-1.592;2023-01-28T07:14:36;102256.91;;;3.51;73.44
59545;BME280;45368;55.002;-1.592;2023-01-28T07:17:03;102251.56;;;4.38;71.09
59545;BME280;45368;55.002;-1.592;2023-01-28T07:19:30;102253.26;;;4.42;71.06
59545;BME280;45368;55.002;-1.592;2023-01-28T07:21:57;102244.50;;;4.80;70.07
59545;BME280;45368;55.002;-1.592;2023-01-28T07:24:25;102239.05;;;4.49;69.70
59545;BME280;45368;55.002;-1.592;2023-01-28T07:26:52;102235.21;;;4.47;70.27
59545;BME280;45368;55.002;-1.592;2023-01-28T07:29:20;102234.87;;;4.71;68.84
59545;BME280;45368;55.002;-1.592;2023-01-28T07:31:47;102228.70;;;5.54;67.54
59545;BME280;45368;55.002;-1.592;2023-01-28T07:34:25;102223.24;;;5.25;66.54
59545;BME280;45368;55.002;-1.592;2023-01-28T07:36:52;102219.39;;;5.29;66.42
59545;BME280;45368;55.002;-1.592;2023-01-28T07:39:19;102214.53;;;5.21;66.33
59545;BME280;45368;55.002;-1.592;2023-01-28T07:41:47;102205.98;;;5.49;65.91
59545;BME280;45368;55.002;-1.592;2023-01-28T07:44:14;102210.09;;;5.65;65.39
59545;BME280;45368;55.002;-1.592;2023-01-28T07:46:41;102212.49;;;5.65;66.37
59545;BME280;45368;55.002;-1.592;2023-01-28T07:49:08;102218.95;;;5.59;66.39
59545;BME280;45368;55.002;-1.592;2023-01-28T07:51:36;102224.46;;;5.32;65.88
59545;BME280;45368;55.002;-1.592;2023-01-28T07:54:03;102216.69;;;6.62;63.19
59545;BME280;45368;55.002;-1.592;2023-01-28T07:56:30;102213.43;;;6.19;63.61
59545;BME280;45368;55.002;-1.592;2023-01-28T07:58:58;102210.96;;;6.27;63.92
59545;BME280;45368;55.002;-1.592;2023-01-28T08:01:26;102205.70;;;6.30;62.81
59545;BME280;45368;55.002;-1.592;2023-01-28T08:03:53;102216.58;;;5.55;65.09
59545;BME280;45368;55.002;-1.592;2023-01-28T08:06:20;102216.87;;;6.04;64.18
59545;BME280;45368;55.002;-1.592;2023-01-28T08:08:48;102220.15;;;5.72;65.28
59545;BME280;45368;55.002;-1.592;2023-01-28T08:11:15;102221.12;;;5.17;67.44
59545;BME280;45368;55.002;-1.592;2023-01-28T08:13:43;102220.88;;;4.04;70.49
59545;BME280;45368;55.002;-1.592;2023-01-28T08:16:10;102222.98;;;3.87;70.75
59545;BME280;45368;55.002;-1.592;2023-01-28T08:18:38;102226.89;;;4.58;69.33
59545;BME280;45368;55.002;-1.592;2023-01-28T08:21:05;102228.28;;;4.02;71.15
59545;BME280;45368;55.002;-1.592;2023-01-28T08:23:33;102227.21;;;4.08;70.55
59545;BME280;45368;55.002;-1.592;2023-01-28T08:26:00;102229.20;;;4.69;69.46
59545;BME280;45368;55.002;-1.592;2023-01-28T08:28:27;102233.65;;;4.25;70.37
59545;BME280;45368;55.002;-1.592;2023-01-28T08:30:54;102234.13;;;5.00;68.68
59545;BME280;45368;55.002;-1.592;2023-01-28T08:33:25;102243.75;;;4.63;70.00
59545;BME280;45368;55.002;-1.592;2023-01-28T08:35:52;102255.08;;;3.69;72.71
59545;BME280;45368;55.002;-1.592;2023-01-28T08:38:20;102258.00;;;3.57;72.75
59545;BME280;45368;55.002;-1.592;2023-01-28T08:40:48;102255.31;;;3.88;71.78
59545;BME280;45368;55.002;-1.592;2023-01-28T08:43:16;102258.39;;;4.70;70.00
59545;BME280;45368;55.002;-1.592;2023-01-28T08:45:43;102264.90;;;4.61;70.05
59545;BME280;45368;55.002;-1.592;2023-01-28T08:48:19;102275.41;;;4.23;71.46
59545;BME280;45368;55.002;-1.592;2023-01-28T08:50:46;102278.98;;;3.99;72.98
59545;BME280;45368;55.002;-1.592;2023-01-28T08:53:14;102281.08;;;3.92;72.87
59545;BME280;45368;55.002;-1.592;2023-01-28T08:55:43;102277.75;;;3.85;72.72
59545;BME280;45368;55.002;-1.592;2023-01-28T08:58:12;102278.67;;;4.35;71.54
59545;BME280;45368;55.002;-1.592;2023-01-28T09:00:40;102276.37;;;4.90;69.91
59545;BME280;45368;55.002;-1.592;2023-01-28T09:03:08;102283.73;;;4.50;70.33
59545;BME280;45368;55.002;-1.592;2023-01-28T09:05:37;102290.04;;;4.82;71.10
59545;BME280;45368;55.002;-1.592;2023-01-28T09:08:06;102291.54;;;5.30;69.54
59545;BME280;45368;55.002;-1.592;2023-01-28T09:10:34;102289.85;;;5.29;69.05
59545;BME280;45368;55.002;-1.592;2023-01-28T09:13:04;102291.89;;;4.27;72.25
59545;BME280;45368;55.002;-1.592;2023-01-28T09:15:32;102299.75;;;4.01;73.13
59545;BME280;45368;55.002;-1.592;2023-01-28T09:18:03;102305.32;;;4.94;71.07
59545;BME280;45368;55.002;-1.592;2023-01-28T09:20:31;102309.81;;;4.61;71.50
59545;BME280;45368;55.002;-1.592;2023-01-28T09:22:59;102309.03;;;5.38;69.31
59545;BME280;45368;55.002;-1.592;2023-01-28T09:25:34;102306.05;;;5.23;67.16
59545;BME280;45368;55.002;-1.592;2023-01-28T09:28:10;102306.07;;;5.33;67.46
59545;BME280;45368;55.002;-1.592;2023-01-28T09:31:03;102313.85;;;5.13;69.36
59545;BME280;45368;55.002;-1.592;2023-01-28T09:33:45;102322.83;;;4.85;70.28
59545;BME280;45368;55.002;-1.592;2023-01-28T09:36:13;102325.88;;;4.82;69.42
59545;BME280;45368;55.002;-1.592;2023-01-28T09:39:12;102324.21;;;5.23;68.63
59545;BME280;45368;55.002;-1.592;2023-01-28T09:41:47;102331.09;;;4.68;70.42
59545;BME280;45368;55.002;-1.592;2023-01-28T09:44:33;102330.94;;;3.70;72.48
59545;BME280;45368;55.002;-1.592;2023-01-28T09:47:08;102331.73;;;4.25;71.87
59545;BME280;45368;55.002;-1.592;2023-01-28T09:49:42;102333.44;;;4.06;73.16
59545;BME280;45368;55.002;-1.592;2023-01-28T09:52:13;102335.11;;;4.15;72.20
59545;BME280;45368;55.002;-1.592;2023-01-28T09:54:45;102333.87;;;5.17;69.86
59545;BME280;45368;55.002;-1.592;2023-01-28T09:57:19;102339.24;;;4.78;69.41
59545;BME280;45368;55.002;-1.592;2023-01-28T09:59:47;102342.49;;;5.36;69.08
59545;BME280;45368;55.002;-1.592;2023-01-28T10:02:26;102343.68;;;5.71;67.47
59545;BME280;45368;55.002;-1.592;2023-01-28T10:05:06;102351.12;;;5.37;69.09
59545;BME280;45368;55.002;-1.592;2023-01-28T10:07:44;102360.36;;;4.64;71.31
59545;BME280;45368;55.002;-1.592;2023-01-28T10:10:20;102356.95;;;6.07;67.98
59545;BME280;45368;55.002;-1.592;2023-01-28T10:13:01;102357.64;;;5.07;71.53
59545;BME280;45368;55.002;-1.592;2023-01-28T10:15:49;102351.12;;;5.80;69.43
59545;BME280;45368;55.002;-1.592;2023-01-28T10:18:27;102343.55;;;5.84;68.09
59545;BME280;45368;55.002;-1.592;2023-01-28T10:21:00;102343.31;;;5.34;70.60
59545;BME280;45368;55.002;-1.592;2023-01-28T10:23:37;102341.38;;;5.75;70.17
59545;BME280;45368;55.002;-1.592;2023-01-28T10:26:18;102335.45;;;5.88;68.83
59545;BME280;45368;55.002;-1.592;2023-01-28T10:28:53;102332.97;;;5.68;69.72
59545;BME280;45368;55.002;-1.592;2023-01-28T10:31:22;102333.69;;;6.11;68.04
59545;BME280;45368;55.002;-1.592;2023-01-28T10:33:53;102338.97;;;6.31;67.63
59545;BME280;45368;55.002;-1.592;2023-01-28T10:36:21;102336.33;;;6.15;67.46
59545;BME280;45368;55.002;-1.592;2023-01-28T10:38:50;102335.54;;;6.84;67.40
59545;BME280;45368;55.002;-1.592;2023-01-28T10:41:21;102325.92;;;7.18;66.16
59545;BME280;45368;55.002;-1.592;2023-01-28T10:43:48;102328.21;;;5.62;70.54
59545;BME280;45368;55.002;-1.592;2023-01-28T10:46:18;102317.92;;;6.41;68.03
59545;BME280;45368;55.002;-1.592;2023-01-28T10:48:54;102314.27;;;7.07;66.10
59545;BME280;45368;55.002;-1.592;2023-01-28T10:51:34;102311.45;;;6.66;65.75
59545;BME280;45368;55.002;-1.592;2023-01-28T10:54:02;102305.49;;;6.81;66.38
59545;BME280;45368;55.002;-1.592;2023-01-28T10:56:31;102304.07;;;6.29;67.96
59545;BME280;45368;55.002;-1.592;2023-01-28T10:59:02;102300.03;;;6.50;67.51
59545;BME280;45368;55.002;-1.592;2023-01-28T11:01:48;102297.14;;;6.50;67.43
59545;BME280;45368;55.002;-1.592;2023-01-28T11:04:18;102297.20;;;5.92;68.19
59545;BME280;45368;55.002;-1.592;2023-01-28T11:07:02;102295.19;;;5.54;70.06
59545;BME280;45368;55.002;-1.592;2023-01-28T11:09:31;102292.04;;;5.78;69.91
59545;BME280;45368;55.002;-1.592;2023-01-28T11:12:11;102289.11;;;5.31;70.59
59545;BME280;45368;55.002;-1.592;2023-01-28T11:14:49;102280.58;;;6.14;68.08
59545;BME280;45368;55.002;-1.592;2023-01-28T11:17:18;102279.43;;;6.80;67.15
59545;BME280;45368;55.002;-1.592;2023-01-28T11:19:46;102277.21;;;6.84;67.77
59545;BME280;45368;55.002;-1.592;2023-01-28T11:22:22;102281.28;;;6.68;67.33
59545;BME280;45368;55.002;-1.592;2023-01-28T11:24:51;102289.97;;;7.04;67.27
59545;BME280;45368;55.002;-1.592;2023-01-28T11:27:23;102294.97;;;6.84;66.33
59545;BME280;45368;55.002;-1.592;2023-01-28T11:29:54;102301.13;;;6.14;68.19
59545;BME280;45368;55.002;-1.592;2023-01-28T11:32:25;102297.00;;;5.84;69.41
59545;BME280;45368;55.002;-1.592;2023-01-28T11:34:54;102296.70;;;6.20;68.96
59545;BME280;45368;55.002;-1.592;2023-01-28T11:37:24;102296.04;;;5.74;69.10
59545;BME280;45368;55.002;-1.592;2023-01-28T11:40:25;102292.72;;;5.97;69.27
59545;BME280;45368;55.002;-1.592;2023-01-28T11:42:54;102287.21;;;6.41;66.84
59545;BME280;45368;55.002;-1.592;2023-01-28T11:45:28;102278.38;;;7.53;63.88
59545;BME280;45368;55.002;-1.592;2023-01-28T11:48:12;102272.09;;;8.52;61.08
59545;BME280;45368;55.002;-1.592;2023-01-28T11:50:46;102262.47;;;9.79;58.88
59545;BME280;45368;55.002;-1.592;2023-01-28T11:53:30;102260.23;;;9.09;59.12
59545;BME280;45368;55.002;-1.592;2023-01-28T11:56:15;102249.43;;;10.38;55.51
59545;BME280;45368;55.002;-1.592;2023-01-28T11:58:55;102244.08;;;9.81;55.51
59545;BME280;45368;55.002;-1.592;2023-01-28T12:01:33;102235.17;;;8.97;58.07
59545;BME280;45368;55.002;-1.592;2023-01-28T12:04:17;102229.44;;;8.55;59.53
59545;BME280;45368;55.002;-1.592;2023-01-28T12:06:57;102223.51;;;7.78;61.60
59545;BME280;45368;55.002;-1.592;2023-01-28T12:09:34;102218.80;;;7.56;61.79
59545;BME280;45368;55.002;-1.592;2023-01-28T12:12:20;102219.01;;;6.79;64.34
59545;BME280;45368;55.002;-1.592;2023-01-28T12:15:33;102219.16;;;7.06;62.91
59545;BME280;45368;55.002;-1.592;2023-01-28T12:18:16;102221.22;;;7.15;63.26
59545;BME280;45368;55.002;-1.592;2023-01-28T12:20:52;102215.44;;;7.16;62.39
59545;BME280;45368;55.002;-1.592;2023-01-28T12:23:40;102219.08;;;6.64;64.39
59545;BME280;45368;55.002;-1.592;2023-01-28T12:26:11;102223.26;;;6.28;65.56
59545;BME280;45368;55.002;-1.592;2023-01-28T12:28:55;102229.10;;;6.37;65.85
59545;BME280;45368;55.002;-1.592;2023-01-28T12:31:34;102224.05;;;5.94;66.76
59545;BME280;45368;55.002;-1.592;2023-01-28T12:34:26;102221.31;;;6.30;65.36
59545;BME280;45368;55.002;-1.592;2023-01-28T12:37:04;102218.10;;;5.40;68.76
59545;BME280;45368;55.002;-1.592;2023-01-28T12:39:43;102198.16;;;5.09;69.29
59545;BME280;45368;55.002;-1.592;2023-01-28T12:42:19;102197.12;;;5.58;67.43
59545;BME280;45368;55.002;-1.592;2023-01-28T12:44:52;102198.25;;;6.11;66.59
59545;BME280;45368;55.002;-1.592;2023-01-28T12:47:26;102196.70;;;6.48;65.29
59545;BME280;45368;55.002;-1.592;2023-01-28T12:49:57;102193.16;;;6.65;64.68
59545;BME280;45368;55.002;-1.592;2023-01-28T12:52:31;102186.47;;;6.80;64.13
59545;BME280;45368;55.002;-1.592;2023-01-28T12:55:03;102186.45;;;6.48;64.91
59545;BME280;45368;55.002;-1.592;2023-01-28T12:57:38;102183.01;;;5.92;66.77
59545;BME280;45368;55.002;-1.592;2023-01-28T13:00:18;102174.57;;;6.09;66.10
59545;BME280;45368;55.002;-1.592;2023-01-28T13:05:39;102164.08;;;7.32;61.81
59545;BME280;45368;55.002;-1.592;2023-01-28T13:08:10;102169.09;;;7.39;61.46
59545;BME280;45368;55.002;-1.592;2023-01-28T13:10:41;102167.69;;;7.45;60.98
59545;BME280;45368;55.002;-1.592;2023-01-28T13:13:16;102170.69;;;6.65;62.92
59545;BME280;45368;55.002;-1.592;2023-01-28T13:15:44;102172.55;;;7.44;61.95